sensor_id;sensor_type;location;lat;lon;timestamp;temperature;humidity
58153;DHT22;43967;51.634;5.566;2023-03-14T00:01:33;19.30;62.30
58153;DHT22;43967;51.634;5.566;2023-03-14T00:06:54;19.30;62.30
58153;DHT22;43967;51.634;5.566;2023-03-14T00:12:15;19.30;62.30
58153;DHT22;43967;51.634;5.566;2023-03-14T00:17:37;19.30;62.20
58153;DHT22;43967;51.634;5.566;2023-03-14T00:22:59;19.30;62.20
58153;DHT22;43967;51.634;5.566;2023-03-14T00:28:20;19.30;62.00
58153;DHT22;43967;51.634;5.566;2023-03-14T00:33:42;19.40;62.00
58153;DHT22;43967;51.634;5.566;2023-03-14T00:39:03;19.40;62.00
58153;DHT22;43967;51.634;5.566;2023-03-14T00:44:25;19.40;61.90
58153;DHT22;43967;51.634;5.566;2023-03-14T00:49:46;19.40;61.80
58153;DHT22;43967;51.634;5.566;2023-03-14T00:55:07;19.40;61.70
58153;DHT22;43967;51.634;5.566;2023-03-14T01:00:29;19.50;61.70
58153;DHT22;43967;51.634;5.566;2023-03-14T01:05:50;19.50;61.60
58153;DHT22;43967;51.634;5.566;2023-03-14T01:11:17;19.50;61.40
58153;DHT22;43967;51.634;5.566;2023-03-14T01:16:39;19.50;61.30
58153;DHT22;43967;51.634;5.566;2023-03-14T01:22:00;19.60;61.20
58153;DHT22;43967;51.634;5.566;2023-03-14T01:27:21;19.50;61.00
58153;DHT22;43967;51.634;5.566;2023-03-14T01:32:43;19.50;60.90
58153;DHT22;43967;51.634;5.566;2023-03-14T01:38:04;19.50;60.90
58153;DHT22;43967;51.634;5.566;2023-03-14T01:43:26;19.50;60.70
58153;DHT22;43967;51.634;5.566;2023-03-14T01:54:36;19.40;60.50
58153;DHT22;43967;51.634;5.566;2023-03-14T02:00:05;19.40;60.40
58153;DHT22;43967;51.634;5.566;2023-03-14T02:05:34;19.40;60.30
58153;DHT22;43967;51.634;5.566;2023-03-14T02:10:55;19.40;60.20
58153;DHT22;43967;51.634;5.566;2023-03-14T02:16:16;19.30;60.00
58153;DHT22;43967;51.634;5.566;2023-03-14T02:21:48;19.30;59.80
58153;DHT22;43967;51.634;5.566;2023-03-14T02:27:20;19.30;59.60
58153;DHT22;43967;51.634;5.566;2023-03-14T02:32:46;19.30;59.60
58153;DHT22;43967;51.634;5.566;2023-03-14T02:43:34;19.30;59.40
58153;DHT22;43967;51.634;5.566;2023-03-14T02:49:03;19.20;59.40
58153;DHT22;43967;51.634;5.566;2023-03-14T02:54:24;19.20;59.30
58153;DHT22;43967;51.634;5.566;2023-03-14T02:59:45;19.20;59.30
58153;DHT22;43967;51.634;5.566;2023-03-14T03:05:07;19.10;59.20
58153;DHT22;43967;51.634;5.566;2023-03-14T03:10:29;19.10;59.20
58153;DHT22;43967;51.634;5.566;2023-03-14T03:15:50;19.10;59.40
58153;DHT22;43967;51.634;5.566;2023-03-14T03:21:12;19.10;59.60
58153;DHT22;43967;51.634;5.566;2023-03-14T03:26:34;19.10;59.50
58153;DHT22;43967;51.634;5.566;2023-03-14T03:31:56;19.10;59.50
58153;DHT22;43967;51.634;5.566;2023-03-14T03:37:17;19.10;59.60
58153;DHT22;43967;51.634;5.566;2023-03-14T03:42:38;19.10;59.70
58153;DHT22;43967;51.634;5.566;2023-03-14T03:48:00;19.10;59.80
58153;DHT22;43967;51.634;5.566;2023-03-14T03:53:22;19.10;59.80
58153;DHT22;43967;51.634;5.566;2023-03-14T03:58:43;19.20;59.90
58153;DHT22;43967;51.634;5.566;2023-03-14T04:04:04;19.20;59.90
58153;DHT22;43967;51.634;5.566;2023-03-14T04:09:26;19.20;59.90
58153;DHT22;43967;51.634;5.566;2023-03-14T04:14:47;19.20;59.90
58153;DHT22;43967;51.634;5.566;2023-03-14T04:20:09;19.30;59.90
58153;DHT22;43967;51.634;5.566;2023-03-14T04:25:30;19.30;59.90
58153;DHT22;43967;51.634;5.566;2023-03-14T04:30:51;19.30;59.80
58153;DHT22;43967;51.634;5.566;2023-03-14T04:36:13;19.30;59.80
58153;DHT22;43967;51.634;5.566;2023-03-14T04:41:35;19.40;59.80
58153;DHT22;43967;51.634;5.566;2023-03-14T04:46:56;19.40;59.80
58153;DHT22;43967;51.634;5.566;2023-03-14T04:52:17;19.40;59.80
58153;DHT22;43967;51.634;5.566;2023-03-14T04:57:39;19.40;59.80
58153;DHT22;43967;51.634;5.566;2023-03-14T05:03:00;19.40;59.80
58153;DHT22;43967;51.634;5.566;2023-03-14T05:08:21;19.40;59.70
58153;DHT22;43967;51.634;5.566;2023-03-14T05:13:42;19.40;59.60
58153;DHT22;43967;51.634;5.566;2023-03-14T05:19:04;19.50;59.50
58153;DHT22;43967;51.634;5.566;2023-03-14T05:24:25;19.50;59.40
58153;DHT22;43967;51.634;5.566;2023-03-14T05:29:47;19.50;59.40
58153;DHT22;43967;51.634;5.566;2023-03-14T05:35:09;19.50;59.40
58153;DHT22;43967;51.634;5.566;2023-03-14T05:40:31;19.40;59.40
58153;DHT22;43967;51.634;5.566;2023-03-14T05:45:52;19.40;59.30
58153;DHT22;43967;51.634;5.566;2023-03-14T05:51:13;19.40;59.30
58153;DHT22;43967;51.634;5.566;2023-03-14T05:56:34;19.40;59.20
58153;DHT22;43967;51.634;5.566;2023-03-14T06:01:56;19.30;59.00
58153;DHT22;43967;51.634;5.566;2023-03-14T06:07:17;19.30;58.90
58153;DHT22;43967;51.634;5.566;2023-03-14T06:12:38;19.30;58.70
58153;DHT22;43967;51.634;5.566;2023-03-14T06:18:00;19.30;58.80
58153;DHT22;43967;51.634;5.566;2023-03-14T06:23:21;19.30;58.70
58153;DHT22;43967;51.634;5.566;2023-03-14T06:28:43;19.20;58.60
58153;DHT22;43967;51.634;5.566;2023-03-14T06:34:04;19.20;58.60
58153;DHT22;43967;51.634;5.566;2023-03-14T06:39:25;19.10;58.50
58153;DHT22;43967;51.634;5.566;2023-03-14T06:44:47;19.10;58.70
58153;DHT22;43967;51.634;5.566;2023-03-14T06:50:09;19.00;58.80
58153;DHT22;43967;51.634;5.566;2023-03-14T06:55:31;19.00;58.80
58153;DHT22;43967;51.634;5.566;2023-03-14T07:00:53;18.90;59.50
58153;DHT22;43967;51.634;5.566;2023-03-14T07:06:14;18.90;58.80
58153;DHT22;43967;51.634;5.566;2023-03-14T07:11:35;18.90;58.70
58153;DHT22;43967;51.634;5.566;2023-03-14T07:16:57;19.00;58.70
58153;DHT22;43967;51.634;5.566;2023-03-14T07:22:18;19.00;58.70
58153;DHT22;43967;51.634;5.566;2023-03-14T07:27:39;19.00;58.70
58153;DHT22;43967;51.634;5.566;2023-03-14T07:33:00;19.00;59.40
58153;DHT22;43967;51.634;5.566;2023-03-14T07:38:22;19.20;69.20
58153;DHT22;43967;51.634;5.566;2023-03-14T07:43:43;19.20;69.60
58153;DHT22;43967;51.634;5.566;2023-03-14T07:49:04;19.40;69.30
58153;DHT22;43967;51.634;5.566;2023-03-14T07:54:26;19.60;68.50
58153;DHT22;43967;51.634;5.566;2023-03-14T07:59:47;19.90;69.80
58153;DHT22;43967;51.634;5.566;2023-03-14T08:05:09;20.00;74.30
58153;DHT22;43967;51.634;5.566;2023-03-14T08:15:52;20.20;57.70
58153;DHT22;43967;51.634;5.566;2023-03-14T08:21:13;20.30;58.20
58153;DHT22;43967;51.634;5.566;2023-03-14T08:26:35;20.40;57.80
58153;DHT22;43967;51.634;5.566;2023-03-14T08:31:56;20.50;57.50
58153;DHT22;43967;51.634;5.566;2023-03-14T08:37:17;20.70;57.80
58153;DHT22;43967;51.634;5.566;2023-03-14T08:42:39;20.80;57.40
58153;DHT22;43967;51.634;5.566;2023-03-14T08:48:01;20.90;57.10
58153;DHT22;43967;51.634;5.566;2023-03-14T08:53:22;21.00;56.60
58153;DHT22;43967;51.634;5.566;2023-03-14T08:58:43;21.10;56.70
58153;DHT22;43967;51.634;5.566;2023-03-14T09:04:05;21.20;56.80
58153;DHT22;43967;51.634;5.566;2023-03-14T09:09:26;21.20;56.60
58153;DHT22;43967;51.634;5.566;2023-03-14T09:14:47;21.30;56.40
58153;DHT22;43967;51.634;5.566;2023-03-14T09:20:09;21.40;56.40
58153;DHT22;43967;51.634;5.566;2023-03-14T09:25:31;21.40;55.30
58153;DHT22;43967;51.634;5.566;2023-03-14T09:30:52;21.20;54.70
58153;DHT22;43967;51.634;5.566;2023-03-14T09:36:13;21.00;54.90
58153;DHT22;43967;51.634;5.566;2023-03-14T09:41:37;20.90;55.70
58153;DHT22;43967;51.634;5.566;2023-03-14T09:47:04;20.80;56.20
58153;DHT22;43967;51.634;5.566;2023-03-14T09:52:29;20.70;56.40
58153;DHT22;43967;51.634;5.566;2023-03-14T09:57:56;20.70;56.60
58153;DHT22;43967;51.634;5.566;2023-03-14T10:03:24;20.60;56.70
58153;DHT22;43967;51.634;5.566;2023-03-14T10:08:45;20.50;56.90
58153;DHT22;43967;51.634;5.566;2023-03-14T10:14:09;20.40;56.90
58153;DHT22;43967;51.634;5.566;2023-03-14T10:19:30;20.30;56.80
58153;DHT22;43967;51.634;5.566;2023-03-14T10:25:00;20.30;56.90
58153;DHT22;43967;51.634;5.566;2023-03-14T10:30:38;20.20;56.50
58153;DHT22;43967;51.634;5.566;2023-03-14T10:36:20;20.10;55.80
58153;DHT22;43967;51.634;5.566;2023-03-14T10:41:48;19.90;55.50
58153;DHT22;43967;51.634;5.566;2023-03-14T10:47:19;19.90;56.10
58153;DHT22;43967;51.634;5.566;2023-03-14T10:52:49;19.80;56.00
58153;DHT22;43967;51.634;5.566;2023-03-14T10:58:28;19.80;56.20
58153;DHT22;43967;51.634;5.566;2023-03-14T11:04:00;19.80;56.50
58153;DHT22;43967;51.634;5.566;2023-03-14T11:09:39;19.80;56.70
58153;DHT22;43967;51.634;5.566;2023-03-14T11:31:58;19.70;58.30
58153;DHT22;43967;51.634;5.566;2023-03-14T11:37:36;19.70;58.10
58153;DHT22;43967;51.634;5.566;2023-03-14T11:48:58;19.70;57.70
58153;DHT22;43967;51.634;5.566;2023-03-14T12:22:46;19.50;57.20
58153;DHT22;43967;51.634;5.566;2023-03-14T12:28:20;19.40;57.10
58153;DHT22;43967;51.634;5.566;2023-03-14T12:33:42;19.50;57.10
58153;DHT22;43967;51.634;5.566;2023-03-14T12:44:49;19.40;57.10
58153;DHT22;43967;51.634;5.566;2023-03-14T12:50:18;19.40;57.00
58153;DHT22;43967;51.634;5.566;2023-03-14T13:01:06;19.30;56.80
58153;DHT22;43967;51.634;5.566;2023-03-14T13:06:48;19.30;56.70
58153;DHT22;43967;51.634;5.566;2023-03-14T13:12:13;19.30;56.70
58153;DHT22;43967;51.634;5.566;2023-03-14T13:17:34;19.30;56.60
58153;DHT22;43967;51.634;5.566;2023-03-14T13:22:56;19.30;56.50
58153;DHT22;43967;51.634;5.566;2023-03-14T13:28:17;19.20;56.40
58153;DHT22;43967;51.634;5.566;2023-03-14T13:33:40;19.20;56.30
58153;DHT22;43967;51.634;5.566;2023-03-14T13:39:02;19.20;56.30
58153;DHT22;43967;51.634;5.566;2023-03-14T13:44:34;19.20;56.20
58153;DHT22;43967;51.634;5.566;2023-03-14T13:49:56;19.10;56.00
58153;DHT22;43967;51.634;5.566;2023-03-14T13:55:19;19.10;56.00
58153;DHT22;43967;51.634;5.566;2023-03-14T14:00:40;19.10;55.90
58153;DHT22;43967;51.634;5.566;2023-03-14T14:06:02;19.10;55.80
58153;DHT22;43967;51.634;5.566;2023-03-14T14:11:32;19.10;55.70
58153;DHT22;43967;51.634;5.566;2023-03-14T14:16:54;19.10;55.60
58153;DHT22;43967;51.634;5.566;2023-03-14T14:22:17;19.10;55.50
58153;DHT22;43967;51.634;5.566;2023-03-14T14:27:42;19.10;55.70
58153;DHT22;43967;51.634;5.566;2023-03-14T14:33:15;19.10;57.10
58153;DHT22;43967;51.634;5.566;2023-03-14T14:38:37;19.10;58.30
58153;DHT22;43967;51.634;5.566;2023-03-14T14:43:59;19.10;58.70
58153;DHT22;43967;51.634;5.566;2023-03-14T14:49:20;19.10;58.70
58153;DHT22;43967;51.634;5.566;2023-03-14T14:54:47;19.10;58.40
58153;DHT22;43967;51.634;5.566;2023-03-14T15:00:19;19.10;58.70
58153;DHT22;43967;51.634;5.566;2023-03-14T15:05:41;19.10;58.70
58153;DHT22;43967;51.634;5.566;2023-03-14T15:11:02;19.10;58.70
58153;DHT22;43967;51.634;5.566;2023-03-14T15:16:27;19.10;58.60
58153;DHT22;43967;51.634;5.566;2023-03-14T15:21:50;19.10;58.70
58153;DHT22;43967;51.634;5.566;2023-03-14T15:27:16;19.10;58.50
58153;DHT22;43967;51.634;5.566;2023-03-14T15:32:38;19.10;58.20
58153;DHT22;43967;51.634;5.566;2023-03-14T15:37:59;19.10;58.40
58153;DHT22;43967;51.634;5.566;2023-03-14T15:43:21;19.00;58.30
58153;DHT22;43967;51.634;5.566;2023-03-14T15:48:42;19.00;58.10
58153;DHT22;43967;51.634;5.566;2023-03-14T15:54:04;19.00;58.10
58153;DHT22;43967;51.634;5.566;2023-03-14T15:59:25;19.00;57.60
58153;DHT22;43967;51.634;5.566;2023-03-14T16:04:46;18.90;57.30
58153;DHT22;43967;51.634;5.566;2023-03-14T16:10:09;18.90;57.30
58153;DHT22;43967;51.634;5.566;2023-03-14T16:15:31;18.90;57.20
58153;DHT22;43967;51.634;5.566;2023-03-14T16:21:00;18.80;57.00
58153;DHT22;43967;51.634;5.566;2023-03-14T16:26:22;18.80;57.10
58153;DHT22;43967;51.634;5.566;2023-03-14T16:31:43;18.80;56.70
58153;DHT22;43967;51.634;5.566;2023-03-14T16:37:04;18.80;56.60
58153;DHT22;43967;51.634;5.566;2023-03-14T16:42:25;18.70;56.50
58153;DHT22;43967;51.634;5.566;2023-03-14T16:47:47;18.70;56.50
58153;DHT22;43967;51.634;5.566;2023-03-14T16:53:08;18.70;57.20
58153;DHT22;43967;51.634;5.566;2023-03-14T16:58:29;18.70;58.10
58153;DHT22;43967;51.634;5.566;2023-03-14T17:03:51;18.70;57.80
58153;DHT22;43967;51.634;5.566;2023-03-14T17:09:12;18.70;57.70
58153;DHT22;43967;51.634;5.566;2023-03-14T17:14:33;18.60;57.50
58153;DHT22;43967;51.634;5.566;2023-03-14T17:19:54;18.60;57.40
58153;DHT22;43967;51.634;5.566;2023-03-14T17:25:16;18.60;57.20
58153;DHT22;43967;51.634;5.566;2023-03-14T17:30:37;18.50;57.10
58153;DHT22;43967;51.634;5.566;2023-03-14T17:35:58;18.50;57.00
58153;DHT22;43967;51.634;5.566;2023-03-14T17:41:20;18.50;56.80
58153;DHT22;43967;51.634;5.566;2023-03-14T17:46:41;18.50;56.80
58153;DHT22;43967;51.634;5.566;2023-03-14T17:52:04;18.40;56.60
58153;DHT22;43967;51.634;5.566;2023-03-14T17:57:26;18.40;56.50
58153;DHT22;43967;51.634;5.566;2023-03-14T18:02:47;18.40;56.50
58153;DHT22;43967;51.634;5.566;2023-03-14T18:08:12;18.40;56.40
58153;DHT22;43967;51.634;5.566;2023-03-14T18:13:33;18.40;56.20
58153;DHT22;43967;51.634;5.566;2023-03-14T18:18:54;18.30;56.10
58153;DHT22;43967;51.634;5.566;2023-03-14T18:24:16;18.30;56.00
58153;DHT22;43967;51.634;5.566;2023-03-14T18:29:38;18.30;56.00
58153;DHT22;43967;51.634;5.566;2023-03-14T18:34:59;18.20;55.90
58153;DHT22;43967;51.634;5.566;2023-03-14T18:40:20;18.20;55.80
58153;DHT22;43967;51.634;5.566;2023-03-14T18:45:42;18.20;55.70
58153;DHT22;43967;51.634;5.566;2023-03-14T18:51:03;18.20;55.60
58153;DHT22;43967;51.634;5.566;2023-03-14T18:56:28;18.20;55.50
58153;DHT22;43967;51.634;5.566;2023-03-14T19:01:50;18.20;55.50
58153;DHT22;43967;51.634;5.566;2023-03-14T19:07:11;18.10;55.40
58153;DHT22;43967;51.634;5.566;2023-03-14T19:12:32;18.20;58.80
58153;DHT22;43967;51.634;5.566;2023-03-14T19:17:53;18.20;60.10
58153;DHT22;43967;51.634;5.566;2023-03-14T19:23:15;18.30;60.50
58153;DHT22;43967;51.634;5.566;2023-03-14T19:28:36;18.30;60.30
58153;DHT22;43967;51.634;5.566;2023-03-14T19:33:57;18.30;60.40
58153;DHT22;43967;51.634;5.566;2023-03-14T19:39:19;18.30;60.50
58153;DHT22;43967;51.634;5.566;2023-03-14T19:44:40;18.40;60.40
58153;DHT22;43967;51.634;5.566;2023-03-14T19:50:02;18.40;60.30
58153;DHT22;43967;51.634;5.566;2023-03-14T19:55:24;18.50;60.30
58153;DHT22;43967;51.634;5.566;2023-03-14T20:00:47;18.40;60.20
58153;DHT22;43967;51.634;5.566;2023-03-14T20:06:10;18.40;60.10
58153;DHT22;43967;51.634;5.566;2023-03-14T20:11:31;18.50;60.00
58153;DHT22;43967;51.634;5.566;2023-03-14T20:16:53;18.50;59.90
58153;DHT22;43967;51.634;5.566;2023-03-14T20:22:14;18.50;60.10
58153;DHT22;43967;51.634;5.566;2023-03-14T20:27:36;18.50;60.10
58153;DHT22;43967;51.634;5.566;2023-03-14T20:32:57;18.50;60.10
58153;DHT22;43967;51.634;5.566;2023-03-14T20:38:18;18.50;60.10
58153;DHT22;43967;51.634;5.566;2023-03-14T20:43:39;18.50;60.00
58153;DHT22;43967;51.634;5.566;2023-03-14T20:49:01;18.50;60.10
58153;DHT22;43967;51.634;5.566;2023-03-14T20:54:22;18.50;60.00
58153;DHT22;43967;51.634;5.566;2023-03-14T20:59:44;18.50;59.80
58153;DHT22;43967;51.634;5.566;2023-03-14T21:05:06;18.50;59.80
58153;DHT22;43967;51.634;5.566;2023-03-14T21:10:27;18.50;59.60
58153;DHT22;43967;51.634;5.566;2023-03-14T21:15:49;18.50;56.80
58153;DHT22;43967;51.634;5.566;2023-03-14T21:21:10;18.40;56.20
58153;DHT22;43967;51.634;5.566;2023-03-14T21:26:31;18.30;57.70
58153;DHT22;43967;51.634;5.566;2023-03-14T21:31:53;18.30;57.20
58153;DHT22;43967;51.634;5.566;2023-03-14T21:37:15;18.20;57.20
58153;DHT22;43967;51.634;5.566;2023-03-14T21:42:36;18.20;57.00
58153;DHT22;43967;51.634;5.566;2023-03-14T21:47:57;18.20;56.80
58153;DHT22;43967;51.634;5.566;2023-03-14T21:53:19;18.10;56.60
58153;DHT22;43967;51.634;5.566;2023-03-14T21:58:40;18.10;56.50
58153;DHT22;43967;51.634;5.566;2023-03-14T22:04:02;18.10;56.20
58153;DHT22;43967;51.634;5.566;2023-03-14T22:09:24;18.10;56.20
58153;DHT22;43967;51.634;5.566;2023-03-14T22:14:46;18.00;56.20
58153;DHT22;43967;51.634;5.566;2023-03-14T22:20:09;18.00;56.10
58153;DHT22;43967;51.634;5.566;2023-03-14T22:25:30;18.00;56.00
58153;DHT22;43967;51.634;5.566;2023-03-14T22:30:52;17.90;56.00
58153;DHT22;43967;51.634;5.566;2023-03-14T22:36:13;17.90;55.90
58153;DHT22;43967;51.634;5.566;2023-03-14T22:41:34;17.90;55.90
58153;DHT22;43967;51.634;5.566;2023-03-14T22:46:56;17.90;55.90
58153;DHT22;43967;51.634;5.566;2023-03-14T22:52:17;17.90;55.90
58153;DHT22;43967;51.634;5.566;2023-03-14T22:57:38;17.80;55.80
58153;DHT22;43967;51.634;5.566;2023-03-14T23:03:00;17.80;55.80
58153;DHT22;43967;51.634;5.566;2023-03-14T23:08:21;17.80;55.80
58153;DHT22;43967;51.634;5.566;2023-03-14T23:13:42;17.80;55.70
58153;DHT22;43967;51.634;5.566;2023-03-14T23:19:04;17.80;56.40
58153;DHT22;43967;51.634;5.566;2023-03-14T23:24:25;17.80;56.00
58153;DHT22;43967;51.634;5.566;2023-03-14T23:29:46;17.80;56.20
58153;DHT22;43967;51.634;5.566;2023-03-14T23:35:09;17.80;56.40
58153;DHT22;43967;51.634;5.566;2023-03-14T23:40:30;17.90;56.40
58153;DHT22;43967;51.634;5.566;2023-03-14T23:45:53;17.90;56.60
58153;DHT22;43967;51.634;5.566;2023-03-14T23:51:15;17.90;56.50
58153;DHT22;43967;51.634;5.566;2023-03-14T23:56:36;17.90;56.20
